createdAt,value
2023-03-14T00:02:16.148Z,11.40
2023-03-14T00:04:43.142Z,11.50
2023-03-14T00:07:12.546Z,11.50
2023-03-14T00:09:39.416Z,11.40
2023-03-14T00:12:07.948Z,11.40
2023-03-14T00:14:34.987Z,11.30
2023-03-14T00:17:01.873Z,11.20
2023-03-14T00:19:28.730Z,11.10
2023-03-14T00:21:55.626Z,11.10
2023-03-14T00:24:22.535Z,11.00
2023-03-14T00:26:49.377Z,10.90
2023-03-14T00:29:16.376Z,10.90
2023-03-14T00:31:45.913Z,10.90
2023-03-14T00:34:12.790Z,11.00
2023-03-14T00:36:39.674Z,10.90
2023-03-14T00:39:06.688Z,10.90
2023-03-14T00:41:33.687Z,10.90
2023-03-14T00:44:01.016Z,10.90
2023-03-14T00:46:27.984Z,10.90
2023-03-14T00:48:54.955Z,10.90
2023-03-14T00:51:21.844Z,11.00
2023-03-14T00:53:49.072Z,11.10
2023-03-14T00:56:16.233Z,11.20
2023-03-14T00:58:43.550Z,11.30
2023-03-14T01:01:17.045Z,11.30
2023-03-14T01:03:44.069Z,11.50
2023-03-14T01:06:21.630Z,11.50
2023-03-14T01:08:48.997Z,11.60
2023-03-14T01:11:22.469Z,11.70
2023-03-14T01:13:50.059Z,11.70
2023-03-14T01:16:19.152Z,11.80
2023-03-14T01:18:47.035Z,11.90
2023-03-14T01:21:17.923Z,11.90
2023-03-14T01:23:45.330Z,11.90
2023-03-14T01:26:15.181Z,12.00
2023-03-14T01:28:42.972Z,12.00
2023-03-14T01:31:11.621Z,12.00
2023-03-14T01:33:39.660Z,12.00
2023-03-14T01:36:07.442Z,12.00
2023-03-14T01:38:36.668Z,12.00
2023-03-14T01:41:04.703Z,11.90
2023-03-14T01:43:31.963Z,11.90
2023-03-14T01:46:09.851Z,11.70
2023-03-14T01:48:50.379Z,11.60
2023-03-14T01:51:30.168Z,11.50
2023-03-14T01:54:35.716Z,11.40
2023-03-14T01:57:28.543Z,11.40
2023-03-14T02:00:21.165Z,11.40
2023-03-14T02:03:15.258Z,11.50
2023-03-14T02:05:43.846Z,11.50
2023-03-14T02:08:22.952Z,11.60
2023-03-14T02:10:52.417Z,11.60
2023-03-14T02:13:25.254Z,11.60
2023-03-14T02:16:15.756Z,11.70
2023-03-14T02:18:56.692Z,11.70
2023-03-14T02:21:57.968Z,11.70
2023-03-14T02:24:42.316Z,11.80
2023-03-14T02:27:17.322Z,11.80
2023-03-14T02:30:01.165Z,11.90
2023-03-14T02:32:31.509Z,11.90
2023-03-14T02:35:01.510Z,11.90
2023-03-14T02:37:41.918Z,12.00
2023-03-14T02:40:10.436Z,12.00
2023-03-14T02:42:39.222Z,12.00
2023-03-14T02:45:09.184Z,12.00
2023-03-14T02:47:43.927Z,12.00
2023-03-14T02:50:16.718Z,12.00
2023-03-14T02:52:43.647Z,12.00
2023-03-14T02:55:10.732Z,12.00
2023-03-14T02:57:40.456Z,12.00
2023-03-14T03:00:09.335Z,12.00
2023-03-14T03:02:38.283Z,12.00
2023-03-14T03:05:05.613Z,12.00
2023-03-14T03:07:32.548Z,12.00
2023-03-14T03:10:00.253Z,12.00
2023-03-14T03:12:27.286Z,12.10
2023-03-14T03:14:54.173Z,12.10
2023-03-14T03:17:21.288Z,12.10
2023-03-14T03:19:48.270Z,12.10
2023-03-14T03:22:15.150Z,12.10
2023-03-14T03:24:42.086Z,12.10
2023-03-14T03:27:08.957Z,12.20
2023-03-14T03:29:36.060Z,12.10
2023-03-14T03:32:03.664Z,12.10
2023-03-14T03:34:30.599Z,12.20
2023-03-14T03:36:58.801Z,12.20
2023-03-14T03:39:28.035Z,12.20
2023-03-14T03:41:55.368Z,12.20
2023-03-14T03:44:23.462Z,12.20
2023-03-14T03:46:52.067Z,12.20
2023-03-14T03:49:19.092Z,12.20
2023-03-14T03:51:46.620Z,12.10
2023-03-14T03:54:14.020Z,12.10
2023-03-14T03:56:41.015Z,12.10
2023-03-14T03:59:08.031Z,12.10
2023-03-14T04:01:34.940Z,12.10
2023-03-14T04:04:02.269Z,12.10
2023-03-14T04:06:29.520Z,12.00
2023-03-14T04:08:59.076Z,12.00
2023-03-14T04:11:47.117Z,12.10
2023-03-14T04:14:19.958Z,12.00
2023-03-14T04:16:48.463Z,12.00
2023-03-14T04:19:18.130Z,12.10
2023-03-14T04:21:47.974Z,12.00
2023-03-14T04:24:15.712Z,12.00
2023-03-14T04:26:45.791Z,12.00
2023-03-14T04:29:13.545Z,12.00
2023-03-14T04:31:41.859Z,12.00
2023-03-14T04:34:09.209Z,12.00
2023-03-14T04:36:41.082Z,12.00
2023-03-14T04:39:13.834Z,12.00
2023-03-14T04:41:47.117Z,12.00
2023-03-14T04:44:14.686Z,12.00
2023-03-14T04:46:41.710Z,12.00
2023-03-14T04:49:11.200Z,12.00
2023-03-14T04:51:39.004Z,12.00
2023-03-14T04:54:06.062Z,12.00
2023-03-14T04:56:33.032Z,12.00
2023-03-14T04:59:02.303Z,12.00
2023-03-14T05:01:29.867Z,12.00
2023-03-14T05:04:23.009Z,12.00
2023-03-14T05:07:22.443Z,12.00
2023-03-14T05:10:08.840Z,12.00
2023-03-14T05:12:54.540Z,11.90
2023-03-14T05:15:47.714Z,11.90
2023-03-14T05:18:35.042Z,11.80
2023-03-14T05:21:11.369Z,11.90
2023-03-14T05:23:57.407Z,11.80
2023-03-14T05:26:44.991Z,11.80
2023-03-14T05:29:21.403Z,11.80
2023-03-14T05:31:59.899Z,11.70
2023-03-14T05:34:45.286Z,11.80
2023-03-14T05:37:30.696Z,11.80
2023-03-14T05:40:18.209Z,11.70
2023-03-14T05:43:17.720Z,11.70
2023-03-14T05:46:03.082Z,11.70
2023-03-14T05:48:43.919Z,11.70
2023-03-14T05:51:31.138Z,11.70
2023-03-14T05:54:16.906Z,11.70
2023-03-14T05:57:06.326Z,11.70
2023-03-14T05:59:46.203Z,11.60
2023-03-14T06:02:33.375Z,11.60
2023-03-14T06:05:08.803Z,11.60
2023-03-14T06:07:36.407Z,11.60
2023-03-14T06:10:06.710Z,11.60
2023-03-14T06:12:33.676Z,11.70
2023-03-14T06:15:00.709Z,11.70
2023-03-14T06:17:28.118Z,11.70
2023-03-14T06:20:02.513Z,11.70
2023-03-14T06:22:31.242Z,11.80
2023-03-14T06:24:58.219Z,11.80
2023-03-14T06:27:26.445Z,11.80
2023-03-14T06:29:56.173Z,11.90
2023-03-14T06:32:25.670Z,11.90
2023-03-14T06:34:54.982Z,12.00
2023-03-14T06:37:21.979Z,12.00
2023-03-14T06:39:49.527Z,12.10
2023-03-14T06:42:32.534Z,12.10
2023-03-14T06:44:59.491Z,12.20
2023-03-14T06:47:27.160Z,12.30
2023-03-14T06:49:54.392Z,12.30
2023-03-14T06:52:22.279Z,12.40
2023-03-14T06:54:49.272Z,12.50
2023-03-14T06:57:17.543Z,12.50
2023-03-14T06:59:44.435Z,12.70
2023-03-14T07:02:13.464Z,12.70
2023-03-14T07:04:42.384Z,12.80
2023-03-14T07:07:10.910Z,12.90
2023-03-14T07:09:37.848Z,13.00
2023-03-14T07:12:05.485Z,13.00
2023-03-14T07:14:33.047Z,13.00
2023-03-14T07:17:00.960Z,13.10
2023-03-14T07:19:28.089Z,13.10
2023-03-14T07:21:55.302Z,13.20
2023-03-14T07:24:25.261Z,13.30
2023-03-14T07:29:19.266Z,13.30
2023-03-14T07:31:46.594Z,13.30
2023-03-14T07:34:17.759Z,13.30
2023-03-14T07:36:46.131Z,13.30
2023-03-14T07:39:13.125Z,13.40
2023-03-14T07:42:00.443Z,13.30
2023-03-14T07:44:45.992Z,13.40
2023-03-14T07:47:12.955Z,13.30
2023-03-14T07:49:39.992Z,13.30
2023-03-14T07:52:07.209Z,13.30
2023-03-14T07:54:34.124Z,13.30
2023-03-14T07:57:01.644Z,13.20
2023-03-14T07:59:29.185Z,13.20
2023-03-14T08:01:56.082Z,13.20
2023-03-14T08:04:22.989Z,13.10
2023-03-14T08:06:49.949Z,13.00
2023-03-14T08:09:16.839Z,13.10
2023-03-14T08:11:43.726Z,13.00
2023-03-14T08:14:12.086Z,13.00
2023-03-14T08:16:39.019Z,13.00
2023-03-14T08:19:05.936Z,13.00
2023-03-14T08:21:32.948Z,13.00
2023-03-14T08:23:59.885Z,12.90
2023-03-14T08:26:26.814Z,12.90
2023-03-14T08:28:53.691Z,12.80
2023-03-14T08:31:20.941Z,12.90
2023-03-14T08:33:47.906Z,12.80
2023-03-14T08:36:14.833Z,12.90
2023-03-14T08:38:43.681Z,13.00
2023-03-14T08:41:11.022Z,12.90
2023-03-14T08:43:39.046Z,13.00
2023-03-14T08:46:06.357Z,13.00
2023-03-14T08:48:33.402Z,13.00
2023-03-14T08:51:18.122Z,13.10
2023-03-14T08:53:45.048Z,13.10
2023-03-14T08:56:12.010Z,13.20
2023-03-14T08:58:39.401Z,13.30
2023-03-14T09:01:07.381Z,13.50
2023-03-14T09:03:34.469Z,13.60
2023-03-14T09:06:10.195Z,13.60
2023-03-14T09:08:39.380Z,13.70
2023-03-14T09:11:09.320Z,13.70
2023-03-14T09:13:36.875Z,13.70
2023-03-14T09:16:03.857Z,13.70
2023-03-14T09:18:30.883Z,13.60
2023-03-14T09:20:57.822Z,13.60
2023-03-14T09:23:24.778Z,13.60
2023-03-14T09:25:56.787Z,13.50
2023-03-14T09:28:23.740Z,13.40
2023-03-14T09:30:50.709Z,13.30
2023-03-14T09:33:18.329Z,13.30
2023-03-14T09:35:45.415Z,13.20
2023-03-14T09:38:12.762Z,13.10
2023-03-14T09:40:41.841Z,13.00
2023-03-14T09:43:16.038Z,13.00
2023-03-14T09:45:47.085Z,12.90
2023-03-14T09:48:21.616Z,12.90
2023-03-14T09:50:54.457Z,12.80
2023-03-14T09:53:44.518Z,12.90
2023-03-14T09:56:30.649Z,12.80
2023-03-14T09:59:04.510Z,12.80
2023-03-14T10:01:33.891Z,12.70
2023-03-14T10:04:15.655Z,12.70
2023-03-14T10:06:42.534Z,12.60
2023-03-14T10:09:26.062Z,12.50
2023-03-14T10:11:57.093Z,12.40
2023-03-14T10:14:37.520Z,12.40
2023-03-14T10:17:11.072Z,12.40
2023-03-14T10:19:51.134Z,12.40
2023-03-14T10:22:18.708Z,12.40
2023-03-14T10:24:55.234Z,12.40
2023-03-14T10:27:34.297Z,12.50
2023-03-14T10:30:07.723Z,12.40
2023-03-14T10:32:41.853Z,12.50
2023-03-14T10:35:15.056Z,12.40
2023-03-14T10:37:55.421Z,12.40
2023-03-14T10:40:38.486Z,12.40
2023-03-14T10:43:06.409Z,12.40
2023-03-14T10:45:39.887Z,12.30
2023-03-14T10:48:20.466Z,12.30
2023-03-14T10:50:56.200Z,12.30
2023-03-14T10:53:25.952Z,12.30
2023-03-14T10:55:54.049Z,12.40
2023-03-14T10:58:31.681Z,12.50
2023-03-14T11:01:33.655Z,12.50
2023-03-14T11:04:33.254Z,12.50
2023-03-14T11:07:30.559Z,12.40
2023-03-14T11:10:02.058Z,12.40
2023-03-14T11:12:50.200Z,12.40
2023-03-14T11:15:23.111Z,12.40
2023-03-14T11:17:49.830Z,12.40
2023-03-14T11:20:47.906Z,12.30
2023-03-14T11:23:26.542Z,12.20
2023-03-14T11:25:59.416Z,12.10
2023-03-14T11:28:26.223Z,12.10
2023-03-14T11:30:55.945Z,12.10
2023-03-14T11:33:26.160Z,12.10
2023-03-14T11:36:04.314Z,12.20
2023-03-14T11:38:51.588Z,12.20
2023-03-14T11:41:33.961Z,12.10
2023-03-14T11:44:05.705Z,11.60
2023-03-14T11:46:35.805Z,11.30
2023-03-14T11:49:27.704Z,11.00
2023-03-14T11:52:01.965Z,10.80
2023-03-14T11:54:54.892Z,10.80
2023-03-14T11:57:23.234Z,10.70
2023-03-14T12:00:00.025Z,10.60
2023-03-14T12:02:33.011Z,10.60
2023-03-14T12:05:02.895Z,10.60
2023-03-14T12:07:43.137Z,10.70
2023-03-14T12:10:10.905Z,10.70
2023-03-14T12:12:38.543Z,10.80
2023-03-14T12:15:06.699Z,11.00
2023-03-14T12:17:39.749Z,11.20
2023-03-14T12:20:16.113Z,11.40
2023-03-14T12:22:55.258Z,11.50
2023-03-14T12:25:25.648Z,11.60
2023-03-14T12:27:55.580Z,11.80
2023-03-14T12:30:42.337Z,11.90
2023-03-14T12:33:18.215Z,12.20
2023-03-14T12:35:53.748Z,12.60
2023-03-14T12:38:54.113Z,12.90
2023-03-14T12:41:26.270Z,13.30
2023-03-14T12:43:53.844Z,13.80
2023-03-14T12:46:28.081Z,14.10
2023-03-14T12:48:56.630Z,14.30
2023-03-14T12:51:39.181Z,14.20
2023-03-14T12:54:34.138Z,13.90
2023-03-14T12:57:09.409Z,13.50
2023-03-14T12:59:59.170Z,13.20
2023-03-14T13:02:29.643Z,12.90
2023-03-14T13:05:05.903Z,12.80
2023-03-14T13:07:56.235Z,12.60
2023-03-14T13:10:44.138Z,12.50
2023-03-14T13:13:27.699Z,12.40
2023-03-14T13:16:01.451Z,12.30
2023-03-14T13:18:42.982Z,12.50
2023-03-14T13:21:22.991Z,12.60
2023-03-14T13:24:00.688Z,12.60
2023-03-14T13:26:36.824Z,12.60
2023-03-14T13:29:24.141Z,12.50
2023-03-14T13:31:58.566Z,12.40
2023-03-14T13:34:35.948Z,12.40
2023-03-14T13:37:02.874Z,12.30
2023-03-14T13:39:30.475Z,12.30
2023-03-14T13:42:02.342Z,12.20
2023-03-14T13:44:40.695Z,12.10
2023-03-14T13:47:15.472Z,12.10
2023-03-14T13:49:43.461Z,12.20
2023-03-14T13:52:31.446Z,12.20
2023-03-14T13:55:00.777Z,12.30
2023-03-14T13:57:27.779Z,12.30
2023-03-14T14:00:08.324Z,12.30
2023-03-14T14:02:38.403Z,12.30
2023-03-14T14:05:06.312Z,12.20
2023-03-14T14:07:33.474Z,12.10
2023-03-14T14:10:02.554Z,12.00
2023-03-14T14:12:37.892Z,11.90
2023-03-14T14:15:11.130Z,12.10
2023-03-14T14:17:44.402Z,12.00
2023-03-14T14:20:23.072Z,12.00
2023-03-14T14:22:51.532Z,12.00
2023-03-14T14:25:18.988Z,12.20
2023-03-14T14:27:51.066Z,12.30
2023-03-14T14:30:21.064Z,12.40
2023-03-14T14:32:50.290Z,12.40
2023-03-14T14:35:35.365Z,12.40
2023-03-14T14:38:03.631Z,12.30
2023-03-14T14:40:31.854Z,12.40
2023-03-14T14:43:06.206Z,12.50
2023-03-14T14:45:35.913Z,12.80
2023-03-14T14:48:03.070Z,12.80
2023-03-14T14:50:32.929Z,12.90
2023-03-14T14:53:02.036Z,12.90
2023-03-14T14:55:40.682Z,13.00
2023-03-14T14:58:26.026Z,13.10
2023-03-14T15:01:00.578Z,13.10
2023-03-14T15:03:29.940Z,13.10
2023-03-14T15:05:57.298Z,13.80
2023-03-14T15:08:27.469Z,15.30
2023-03-14T15:10:55.345Z,16.70
2023-03-14T15:13:22.560Z,17.70
2023-03-14T15:15:56.800Z,18.50
2023-03-14T15:18:26.505Z,19.10
2023-03-14T15:20:54.051Z,18.90
2023-03-14T15:23:22.281Z,19.30
2023-03-14T15:25:57.242Z,19.00
2023-03-14T15:28:30.884Z,18.20
2023-03-14T15:30:59.866Z,17.10
2023-03-14T15:33:27.833Z,16.20
2023-03-14T15:35:54.979Z,16.60
2023-03-14T15:38:23.969Z,17.80
2023-03-14T15:40:52.633Z,18.80
2023-03-14T15:43:20.351Z,19.60
2023-03-14T15:45:47.859Z,20.00
2023-03-14T15:48:17.770Z,20.20
2023-03-14T15:50:44.968Z,20.50
2023-03-14T15:53:12.599Z,20.90
2023-03-14T15:55:39.646Z,21.30
2023-03-14T15:58:06.943Z,21.10
2023-03-14T16:00:34.002Z,20.40
2023-03-14T16:03:00.847Z,19.50
2023-03-14T16:05:27.797Z,18.60
2023-03-14T16:07:54.664Z,17.80
2023-03-14T16:10:21.597Z,17.20
2023-03-14T16:12:48.887Z,16.60
2023-03-14T16:15:15.825Z,16.10
2023-03-14T16:17:44.224Z,15.60
2023-03-14T16:20:12.057Z,15.10
2023-03-14T16:22:39.482Z,14.50
2023-03-14T16:25:07.955Z,14.20
2023-03-14T16:27:35.041Z,14.20
2023-03-14T16:30:02.018Z,14.50
2023-03-14T16:32:29.506Z,14.40
2023-03-14T16:34:56.616Z,14.20
2023-03-14T16:37:24.813Z,14.00
2023-03-14T16:40:11.059Z,13.80
2023-03-14T16:42:46.679Z,13.60
2023-03-14T16:45:22.432Z,13.30
2023-03-14T16:47:49.450Z,13.20
2023-03-14T16:50:17.494Z,13.30
2023-03-14T16:52:46.990Z,13.50
2023-03-14T16:55:14.042Z,13.70
2023-03-14T16:57:41.023Z,13.90
2023-03-14T17:00:11.890Z,13.90
2023-03-14T17:02:38.995Z,13.80
2023-03-14T17:05:06.295Z,13.50
2023-03-14T17:07:33.279Z,13.20
2023-03-14T17:10:00.260Z,12.90
2023-03-14T17:12:27.185Z,12.50
2023-03-14T17:14:54.128Z,12.20
2023-03-14T17:17:21.006Z,12.00
2023-03-14T17:19:48.109Z,11.80
2023-03-14T17:22:25.148Z,11.70
2023-03-14T17:24:54.357Z,11.60
2023-03-14T17:27:21.408Z,11.50
2023-03-14T17:29:49.108Z,11.50
2023-03-14T17:32:17.920Z,11.50
2023-03-14T17:34:45.191Z,11.40
2023-03-14T17:37:13.122Z,11.40
2023-03-14T17:39:40.138Z,11.30
2023-03-14T17:42:07.590Z,11.40
2023-03-14T17:44:36.948Z,11.40
2023-03-14T17:47:03.974Z,11.40
2023-03-14T17:49:30.996Z,11.50
2023-03-14T17:51:57.934Z,11.50
2023-03-14T17:54:25.151Z,11.50
2023-03-14T17:56:52.276Z,11.50
2023-03-14T17:59:19.480Z,11.50
2023-03-14T18:01:49.930Z,11.40
2023-03-14T18:04:21.237Z,11.40
2023-03-14T18:06:48.194Z,11.40
2023-03-14T18:09:15.485Z,11.40
2023-03-14T18:11:42.504Z,11.30
2023-03-14T18:14:11.538Z,11.30
2023-03-14T18:16:39.568Z,11.20
2023-03-14T18:19:08.289Z,11.20
2023-03-14T18:21:36.469Z,11.10
2023-03-14T18:24:05.201Z,11.10
2023-03-14T18:26:32.256Z,11.00
2023-03-14T18:28:59.279Z,10.90
2023-03-14T18:31:26.218Z,10.80
2023-03-14T18:33:55.735Z,10.70
2023-03-14T18:36:22.957Z,10.60
2023-03-14T18:38:51.682Z,10.50
2023-03-14T18:41:23.346Z,10.50
2023-03-14T18:43:50.493Z,10.40
2023-03-14T18:46:17.624Z,10.40
2023-03-14T18:48:45.551Z,10.30
2023-03-14T18:51:15.358Z,10.20
2023-03-14T18:53:43.414Z,10.20
2023-03-14T18:56:13.958Z,10.10
2023-03-14T18:58:41.682Z,10.10
2023-03-14T19:01:12.113Z,10.10
2023-03-14T19:03:40.199Z,10.10
2023-03-14T19:06:09.434Z,10.00
2023-03-14T19:08:37.988Z,10.00
2023-03-14T19:11:07.535Z,10.00
2023-03-14T19:13:35.032Z,10.10
2023-03-14T19:16:03.168Z,10.10
2023-03-14T19:18:30.483Z,10.10
2023-03-14T19:21:03.682Z,10.10
2023-03-14T19:23:37.453Z,10.10
2023-03-14T19:26:05.197Z,10.20
2023-03-14T19:28:32.480Z,10.20
2023-03-14T19:31:02.215Z,10.30
2023-03-14T19:33:30.866Z,10.30
2023-03-14T19:35:58.461Z,10.30
2023-03-14T19:38:25.728Z,10.40
2023-03-14T19:40:58.515Z,10.40
2023-03-14T19:43:26.642Z,10.30
2023-03-14T19:45:55.866Z,10.30
2023-03-14T19:48:30.468Z,10.30
2023-03-14T19:51:00.173Z,10.30
2023-03-14T19:53:27.316Z,10.30
2023-03-14T19:55:54.380Z,10.20
2023-03-14T19:58:21.930Z,10.20
2023-03-14T20:00:49.813Z,10.20
2023-03-14T20:03:16.909Z,10.10
2023-03-14T20:05:47.158Z,10.10
2023-03-14T20:08:14.091Z,10.10
2023-03-14T20:11:00.682Z,10.10
2023-03-14T20:13:46.950Z,10.20
2023-03-14T20:16:27.474Z,10.10
2023-03-14T20:22:04.153Z,10.10
2023-03-14T20:25:13.220Z,9.70
2023-03-14T20:27:56.914Z,9.20
2023-03-14T20:30:31.618Z,8.70
2023-03-14T20:33:05.198Z,8.40
2023-03-14T20:36:12.739Z,8.20
2023-03-14T20:39:22.299Z,8.20
2023-03-14T20:42:11.301Z,8.10
2023-03-14T20:45:00.873Z,8.20
2023-03-14T20:51:20.380Z,8.30
2023-03-14T20:57:07.880Z,8.30
2023-03-14T20:59:41.079Z,8.30
2023-03-14T21:02:10.984Z,8.30
2023-03-14T21:04:42.819Z,8.30
2023-03-14T21:07:14.034Z,8.50
2023-03-14T21:09:44.475Z,8.40
2023-03-14T21:12:23.746Z,8.40
2023-03-14T21:14:55.677Z,8.40
2023-03-14T21:17:26.622Z,8.40
2023-03-14T21:20:00.152Z,8.30
2023-03-14T21:25:15.993Z,8.30
2023-03-14T21:27:43.879Z,8.30
2023-03-14T21:30:12.226Z,8.30
2023-03-14T21:32:39.180Z,8.30
2023-03-14T21:35:06.412Z,8.30
2023-03-14T21:37:33.992Z,8.20
2023-03-14T21:40:01.048Z,8.20
2023-03-14T21:42:28.373Z,8.00
2023-03-14T21:44:55.498Z,7.80
2023-03-14T21:47:23.471Z,7.80
2023-03-14T21:49:53.911Z,7.80
2023-03-14T21:52:24.008Z,7.90
2023-03-14T21:54:51.174Z,7.90
2023-03-14T21:57:18.384Z,7.90
2023-03-14T21:59:47.547Z,8.00
2023-03-14T22:02:17.220Z,8.00
2023-03-14T22:04:44.936Z,8.00
2023-03-14T22:07:17.323Z,8.10
2023-03-14T22:09:45.757Z,8.00
2023-03-14T22:12:19.218Z,8.00
2023-03-14T22:14:49.167Z,7.90
2023-03-14T22:17:16.202Z,7.90
2023-03-14T22:19:43.104Z,7.90
2023-03-14T22:22:10.134Z,7.90
2023-03-14T22:24:37.392Z,7.80
2023-03-14T22:27:04.563Z,7.80
2023-03-14T22:29:31.555Z,7.80
2023-03-14T22:31:58.508Z,7.80
2023-03-14T22:34:31.541Z,7.90
2023-03-14T22:36:59.644Z,7.90
2023-03-14T22:39:27.323Z,7.90
2023-03-14T22:41:55.247Z,7.90
2023-03-14T22:44:23.042Z,7.80
2023-03-14T22:46:50.055Z,7.80
2023-03-14T22:49:17.514Z,7.90
2023-03-14T22:51:44.459Z,7.80
2023-03-14T22:54:11.350Z,7.80
2023-03-14T22:56:38.173Z,7.90
2023-03-14T22:59:05.082Z,7.80
2023-03-14T23:01:32.128Z,7.90
2023-03-14T23:03:59.284Z,7.80
2023-03-14T23:06:26.250Z,7.80
2023-03-14T23:08:53.231Z,7.90
2023-03-14T23:11:20.344Z,7.90
2023-03-14T23:13:48.465Z,7.80
2023-03-14T23:16:15.579Z,7.90
2023-03-14T23:18:43.496Z,7.90
2023-03-14T23:21:20.651Z,7.90
2023-03-14T23:23:48.050Z,7.90
2023-03-14T23:26:18.818Z,7.80
2023-03-14T23:28:45.815Z,7.90
2023-03-14T23:31:14.617Z,7.80
2023-03-14T23:33:42.607Z,7.80
2023-03-14T23:36:13.045Z,7.80
2023-03-14T23:38:42.025Z,7.80
2023-03-14T23:41:14.362Z,7.90
2023-03-14T23:43:42.982Z,7.90
2023-03-14T23:46:10.174Z,7.90
2023-03-14T23:48:38.155Z,7.80
2023-03-14T23:51:07.337Z,7.80
2023-03-14T23:53:34.550Z,7.70
2023-03-14T23:56:02.381Z,7.80
2023-03-14T23:58:39.690Z,7.80
